sensor_id;sensor_type;location;lat;lon;timestamp;temperature;humidity
45868;DHT22;31582;45.490;7.860;2023-04-24T00:01:45;11.20;99.90
45868;DHT22;31582;45.490;7.860;2023-04-24T00:04:12;11.20;99.90
45868;DHT22;31582;45.490;7.860;2023-04-24T00:06:41;11.20;99.90
45868;DHT22;31582;45.490;7.860;2023-04-24T00:09:09;11.20;99.90
45868;DHT22;31582;45.490;7.860;2023-04-24T00:11:36;11.10;99.90
45868;DHT22;31582;45.490;7.860;2023-04-24T00:14:03;11.10;99.90
45868;DHT22;31582;45.490;7.860;2023-04-24T00:16:30;11.10;99.90
45868;DHT22;31582;45.490;7.860;2023-04-24T00:18:57;11.10;99.90
45868;DHT22;31582;45.490;7.860;2023-04-24T00:21:24;11.00;99.90
45868;DHT22;31582;45.490;7.860;2023-04-24T00:23:53;11.10;99.90
45868;DHT22;31582;45.490;7.860;2023-04-24T00:26:19;11.00;99.90
45868;DHT22;31582;45.490;7.860;2023-04-24T00:28:46;11.00;99.90
45868;DHT22;31582;45.490;7.860;2023-04-24T00:31:13;11.00;99.90
45868;DHT22;31582;45.490;7.860;2023-04-24T00:33:40;11.00;99.90
45868;DHT22;31582;45.490;7.860;2023-04-24T00:36:07;10.90;99.90
45868;DHT22;31582;45.490;7.860;2023-04-24T00:38:34;10.90;99.90
45868;DHT22;31582;45.490;7.860;2023-04-24T00:41:01;10.90;99.90
45868;DHT22;31582;45.490;7.860;2023-04-24T00:43:28;10.80;99.90
45868;DHT22;31582;45.490;7.860;2023-04-24T00:45:55;10.80;99.90
45868;DHT22;31582;45.490;7.860;2023-04-24T00:48:23;10.70;99.90
45868;DHT22;31582;45.490;7.860;2023-04-24T00:50:50;10.70;99.90
45868;DHT22;31582;45.490;7.860;2023-04-24T00:53:17;10.70;99.90
45868;DHT22;31582;45.490;7.860;2023-04-24T00:55:44;10.70;99.90
45868;DHT22;31582;45.490;7.860;2023-04-24T00:58:12;10.60;99.90
45868;DHT22;31582;45.490;7.860;2023-04-24T01:00:39;10.60;99.90
45868;DHT22;31582;45.490;7.860;2023-04-24T01:03:07;10.50;99.90
45868;DHT22;31582;45.490;7.860;2023-04-24T01:05:35;10.50;99.90
45868;DHT22;31582;45.490;7.860;2023-04-24T01:08:02;10.50;99.90
45868;DHT22;31582;45.490;7.860;2023-04-24T01:10:31;10.50;99.90
45868;DHT22;31582;45.490;7.860;2023-04-24T01:12:59;10.40;99.90
45868;DHT22;31582;45.490;7.860;2023-04-24T01:15:27;10.40;99.90
45868;DHT22;31582;45.490;7.860;2023-04-24T01:17:53;10.30;99.90
45868;DHT22;31582;45.490;7.860;2023-04-24T01:20:20;10.30;99.90
45868;DHT22;31582;45.490;7.860;2023-04-24T01:22:48;10.30;99.90
45868;DHT22;31582;45.490;7.860;2023-04-24T01:25:15;10.30;99.90
45868;DHT22;31582;45.490;7.860;2023-04-24T01:27:42;10.30;99.90
45868;DHT22;31582;45.490;7.860;2023-04-24T01:30:10;10.20;99.90
45868;DHT22;31582;45.490;7.860;2023-04-24T01:32:37;10.20;99.90
45868;DHT22;31582;45.490;7.860;2023-04-24T01:35:05;10.20;99.90
45868;DHT22;31582;45.490;7.860;2023-04-24T01:37:33;10.20;99.90
45868;DHT22;31582;45.490;7.860;2023-04-24T01:39:59;10.20;99.90
45868;DHT22;31582;45.490;7.860;2023-04-24T01:42:27;10.20;99.90
45868;DHT22;31582;45.490;7.860;2023-04-24T01:44:53;10.20;99.90
45868;DHT22;31582;45.490;7.860;2023-04-24T01:47:21;10.20;99.90
45868;DHT22;31582;45.490;7.860;2023-04-24T01:49:48;10.20;99.90
45868;DHT22;31582;45.490;7.860;2023-04-24T01:52:16;10.10;99.90
45868;DHT22;31582;45.490;7.860;2023-04-24T01:54:45;10.10;99.90
45868;DHT22;31582;45.490;7.860;2023-04-24T01:57:12;10.00;99.90
45868;DHT22;31582;45.490;7.860;2023-04-24T01:59:39;10.00;99.90
45868;DHT22;31582;45.490;7.860;2023-04-24T02:02:06;9.90;99.90
45868;DHT22;31582;45.490;7.860;2023-04-24T02:04:34;9.90;99.90
45868;DHT22;31582;45.490;7.860;2023-04-24T02:07:01;9.90;99.90
45868;DHT22;31582;45.490;7.860;2023-04-24T02:09:27;9.90;99.90
45868;DHT22;31582;45.490;7.860;2023-04-24T02:11:54;9.80;99.90
45868;DHT22;31582;45.490;7.860;2023-04-24T02:14:23;9.80;99.90
45868;DHT22;31582;45.490;7.860;2023-04-24T02:16:50;9.70;99.90
45868;DHT22;31582;45.490;7.860;2023-04-24T02:19:17;9.70;99.90
45868;DHT22;31582;45.490;7.860;2023-04-24T02:21:44;9.70;99.90
45868;DHT22;31582;45.490;7.860;2023-04-24T02:24:10;9.70;99.90
45868;DHT22;31582;45.490;7.860;2023-04-24T02:26:37;9.70;99.90
45868;DHT22;31582;45.490;7.860;2023-04-24T02:29:04;9.60;99.90
45868;DHT22;31582;45.490;7.860;2023-04-24T02:31:31;9.60;99.90
45868;DHT22;31582;45.490;7.860;2023-04-24T02:33:58;9.60;99.90
45868;DHT22;31582;45.490;7.860;2023-04-24T02:36:25;9.60;99.90
45868;DHT22;31582;45.490;7.860;2023-04-24T02:38:52;9.60;99.90
45868;DHT22;31582;45.490;7.860;2023-04-24T02:41:19;9.60;99.90
45868;DHT22;31582;45.490;7.860;2023-04-24T02:43:46;9.60;99.90
45868;DHT22;31582;45.490;7.860;2023-04-24T02:46:13;9.60;99.90
45868;DHT22;31582;45.490;7.860;2023-04-24T02:48:40;9.50;99.90
45868;DHT22;31582;45.490;7.860;2023-04-24T02:51:06;9.50;99.90
45868;DHT22;31582;45.490;7.860;2023-04-24T02:53:33;9.40;99.90
45868;DHT22;31582;45.490;7.860;2023-04-24T02:56:00;9.40;99.90
45868;DHT22;31582;45.490;7.860;2023-04-24T02:58:27;9.40;99.90
45868;DHT22;31582;45.490;7.860;2023-04-24T03:00:54;9.40;99.90
45868;DHT22;31582;45.490;7.860;2023-04-24T03:03:22;9.30;99.90
45868;DHT22;31582;45.490;7.860;2023-04-24T03:05:49;9.30;99.90
45868;DHT22;31582;45.490;7.860;2023-04-24T03:08:16;9.20;99.90
45868;DHT22;31582;45.490;7.860;2023-04-24T03:10:44;9.20;99.90
45868;DHT22;31582;45.490;7.860;2023-04-24T03:13:13;9.20;99.90
45868;DHT22;31582;45.490;7.860;2023-04-24T03:15:41;9.20;99.90
45868;DHT22;31582;45.490;7.860;2023-04-24T03:18:08;9.10;99.90
45868;DHT22;31582;45.490;7.860;2023-04-24T03:20:35;9.10;99.90
45868;DHT22;31582;45.490;7.860;2023-04-24T03:23:04;9.10;99.90
45868;DHT22;31582;45.490;7.860;2023-04-24T03:25:31;9.00;99.90
45868;DHT22;31582;45.490;7.860;2023-04-24T03:27:58;9.00;99.90
45868;DHT22;31582;45.490;7.860;2023-04-24T03:30:24;8.90;99.90
45868;DHT22;31582;45.490;7.860;2023-04-24T03:32:51;8.90;99.90
45868;DHT22;31582;45.490;7.860;2023-04-24T03:35:18;8.80;99.90
45868;DHT22;31582;45.490;7.860;2023-04-24T03:37:45;8.80;99.90
45868;DHT22;31582;45.490;7.860;2023-04-24T03:40:12;8.80;99.90
45868;DHT22;31582;45.490;7.860;2023-04-24T03:42:39;8.80;99.90
45868;DHT22;31582;45.490;7.860;2023-04-24T03:45:06;8.70;99.90
45868;DHT22;31582;45.490;7.860;2023-04-24T03:47:33;8.70;99.90
45868;DHT22;31582;45.490;7.860;2023-04-24T03:50:01;8.70;99.90
45868;DHT22;31582;45.490;7.860;2023-04-24T03:52:27;8.70;99.90
45868;DHT22;31582;45.490;7.860;2023-04-24T03:54:54;8.60;99.90
45868;DHT22;31582;45.490;7.860;2023-04-24T03:57:22;8.60;99.90
45868;DHT22;31582;45.490;7.860;2023-04-24T03:59:48;8.50;99.90
45868;DHT22;31582;45.490;7.860;2023-04-24T04:02:15;8.50;99.90
45868;DHT22;31582;45.490;7.860;2023-04-24T04:04:42;8.50;99.90
45868;DHT22;31582;45.490;7.860;2023-04-24T04:07:09;8.40;99.90
45868;DHT22;31582;45.490;7.860;2023-04-24T04:09:38;8.40;99.90
45868;DHT22;31582;45.490;7.860;2023-04-24T04:12:05;8.30;99.90
45868;DHT22;31582;45.490;7.860;2023-04-24T04:14:32;8.30;99.90
45868;DHT22;31582;45.490;7.860;2023-04-24T04:16:58;8.30;99.90
45868;DHT22;31582;45.490;7.860;2023-04-24T04:19:25;8.20;99.90
45868;DHT22;31582;45.490;7.860;2023-04-24T04:21:52;8.20;99.90
45868;DHT22;31582;45.490;7.860;2023-04-24T04:24:22;8.10;99.90
45868;DHT22;31582;45.490;7.860;2023-04-24T04:26:51;8.10;99.90
45868;DHT22;31582;45.490;7.860;2023-04-24T04:29:18;8.10;99.90
45868;DHT22;31582;45.490;7.860;2023-04-24T04:31:45;8.10;99.90
45868;DHT22;31582;45.490;7.860;2023-04-24T04:34:12;8.00;99.90
45868;DHT22;31582;45.490;7.860;2023-04-24T04:36:40;8.00;99.90
45868;DHT22;31582;45.490;7.860;2023-04-24T04:39:07;8.00;99.90
45868;DHT22;31582;45.490;7.860;2023-04-24T04:41:34;8.00;99.90
45868;DHT22;31582;45.490;7.860;2023-04-24T04:44:02;8.00;99.90
45868;DHT22;31582;45.490;7.860;2023-04-24T04:46:31;8.00;99.90
45868;DHT22;31582;45.490;7.860;2023-04-24T04:49:00;7.90;99.90
45868;DHT22;31582;45.490;7.860;2023-04-24T04:51:28;8.00;99.90
45868;DHT22;31582;45.490;7.860;2023-04-24T04:53:54;8.00;99.90
45868;DHT22;31582;45.490;7.860;2023-04-24T04:56:21;8.00;99.90
45868;DHT22;31582;45.490;7.860;2023-04-24T04:58:49;7.90;99.90
45868;DHT22;31582;45.490;7.860;2023-04-24T05:01:15;7.90;99.90
45868;DHT22;31582;45.490;7.860;2023-04-24T05:03:42;7.90;99.90
45868;DHT22;31582;45.490;7.860;2023-04-24T05:06:10;7.90;99.90
45868;DHT22;31582;45.490;7.860;2023-04-24T05:08:37;7.80;99.90
45868;DHT22;31582;45.490;7.860;2023-04-24T05:11:03;7.80;99.90
45868;DHT22;31582;45.490;7.860;2023-04-24T05:13:31;7.80;99.90
45868;DHT22;31582;45.490;7.860;2023-04-24T05:16:06;7.90;99.90
45868;DHT22;31582;45.490;7.860;2023-04-24T05:18:33;7.90;99.90
45868;DHT22;31582;45.490;7.860;2023-04-24T05:21:00;7.90;99.90
45868;DHT22;31582;45.490;7.860;2023-04-24T05:23:28;8.00;99.90
45868;DHT22;31582;45.490;7.860;2023-04-24T05:25:54;8.10;99.90
45868;DHT22;31582;45.490;7.860;2023-04-24T05:28:21;8.20;99.90
45868;DHT22;31582;45.490;7.860;2023-04-24T05:30:48;8.20;99.90
45868;DHT22;31582;45.490;7.860;2023-04-24T05:33:15;8.30;99.90
45868;DHT22;31582;45.490;7.860;2023-04-24T05:35:42;8.40;99.90
45868;DHT22;31582;45.490;7.860;2023-04-24T05:38:13;8.40;99.90
45868;DHT22;31582;45.490;7.860;2023-04-24T05:40:40;8.50;99.90
45868;DHT22;31582;45.490;7.860;2023-04-24T05:43:07;8.50;99.90
45868;DHT22;31582;45.490;7.860;2023-04-24T05:45:34;8.50;99.90
45868;DHT22;31582;45.490;7.860;2023-04-24T05:48:03;8.60;99.90
45868;DHT22;31582;45.490;7.860;2023-04-24T05:50:30;8.60;99.90
45868;DHT22;31582;45.490;7.860;2023-04-24T05:52:57;8.70;99.90
45868;DHT22;31582;45.490;7.860;2023-04-24T05:55:25;8.70;99.90
45868;DHT22;31582;45.490;7.860;2023-04-24T05:57:52;8.80;99.90
45868;DHT22;31582;45.490;7.860;2023-04-24T06:00:19;8.80;99.90
45868;DHT22;31582;45.490;7.860;2023-04-24T06:02:46;8.90;99.90
45868;DHT22;31582;45.490;7.860;2023-04-24T06:05:14;8.90;99.90
45868;DHT22;31582;45.490;7.860;2023-04-24T06:07:41;9.00;99.90
45868;DHT22;31582;45.490;7.860;2023-04-24T06:10:09;9.10;99.90
45868;DHT22;31582;45.490;7.860;2023-04-24T06:12:36;9.10;99.90
45868;DHT22;31582;45.490;7.860;2023-04-24T06:15:04;9.10;99.90
45868;DHT22;31582;45.490;7.860;2023-04-24T06:17:31;9.20;99.90
45868;DHT22;31582;45.490;7.860;2023-04-24T06:19:58;9.20;99.90
45868;DHT22;31582;45.490;7.860;2023-04-24T06:22:25;9.30;99.90
45868;DHT22;31582;45.490;7.860;2023-04-24T06:24:52;9.40;99.90
45868;DHT22;31582;45.490;7.860;2023-04-24T06:27:19;9.40;99.90
45868;DHT22;31582;45.490;7.860;2023-04-24T06:29:46;9.50;99.90
45868;DHT22;31582;45.490;7.860;2023-04-24T06:32:19;9.50;99.90
45868;DHT22;31582;45.490;7.860;2023-04-24T06:34:46;9.60;99.90
45868;DHT22;31582;45.490;7.860;2023-04-24T06:37:14;9.60;99.90
45868;DHT22;31582;45.490;7.860;2023-04-24T06:39:42;9.70;99.90
45868;DHT22;31582;45.490;7.860;2023-04-24T06:42:09;9.80;99.90
45868;DHT22;31582;45.490;7.860;2023-04-24T06:44:36;9.80;99.90
45868;DHT22;31582;45.490;7.860;2023-04-24T06:47:08;9.90;99.90
45868;DHT22;31582;45.490;7.860;2023-04-24T06:49:38;10.00;99.90
45868;DHT22;31582;45.490;7.860;2023-04-24T06:52:06;10.10;99.90
45868;DHT22;31582;45.490;7.860;2023-04-24T06:54:33;10.20;99.90
45868;DHT22;31582;45.490;7.860;2023-04-24T06:57:00;10.30;99.90
45868;DHT22;31582;45.490;7.860;2023-04-24T06:59:27;10.40;99.90
45868;DHT22;31582;45.490;7.860;2023-04-24T07:01:55;10.50;99.90
45868;DHT22;31582;45.490;7.860;2023-04-24T07:04:22;10.70;99.90
45868;DHT22;31582;45.490;7.860;2023-04-24T07:06:49;10.80;99.90
45868;DHT22;31582;45.490;7.860;2023-04-24T07:09:17;10.90;99.90
45868;DHT22;31582;45.490;7.860;2023-04-24T07:11:47;11.00;99.90
45868;DHT22;31582;45.490;7.860;2023-04-24T07:14:14;11.10;99.90
45868;DHT22;31582;45.490;7.860;2023-04-24T07:16:42;11.30;99.90
45868;DHT22;31582;45.490;7.860;2023-04-24T07:19:09;11.50;99.90
45868;DHT22;31582;45.490;7.860;2023-04-24T07:21:36;11.70;99.90
45868;DHT22;31582;45.490;7.860;2023-04-24T07:24:03;11.90;99.90
45868;DHT22;31582;45.490;7.860;2023-04-24T07:26:30;12.10;99.90
45868;DHT22;31582;45.490;7.860;2023-04-24T07:28:57;12.30;99.90
45868;DHT22;31582;45.490;7.860;2023-04-24T07:31:24;12.50;99.90
45868;DHT22;31582;45.490;7.860;2023-04-24T07:33:51;12.80;99.90
45868;DHT22;31582;45.490;7.860;2023-04-24T07:36:18;13.00;99.90
45868;DHT22;31582;45.490;7.860;2023-04-24T07:38:46;13.20;99.90
45868;DHT22;31582;45.490;7.860;2023-04-24T07:41:13;13.40;99.90
45868;DHT22;31582;45.490;7.860;2023-04-24T07:43:41;13.70;99.90
45868;DHT22;31582;45.490;7.860;2023-04-24T07:46:08;13.90;99.90
45868;DHT22;31582;45.490;7.860;2023-04-24T07:48:36;14.10;99.90
45868;DHT22;31582;45.490;7.860;2023-04-24T07:51:03;14.40;99.90
45868;DHT22;31582;45.490;7.860;2023-04-24T07:53:30;14.60;99.90
45868;DHT22;31582;45.490;7.860;2023-04-24T07:55:58;14.80;99.90
45868;DHT22;31582;45.490;7.860;2023-04-24T07:58:25;14.90;99.90
45868;DHT22;31582;45.490;7.860;2023-04-24T08:00:52;15.10;99.90
45868;DHT22;31582;45.490;7.860;2023-04-24T08:03:19;15.10;99.90
45868;DHT22;31582;45.490;7.860;2023-04-24T08:05:47;15.30;99.90
45868;DHT22;31582;45.490;7.860;2023-04-24T08:08:14;15.40;99.90
45868;DHT22;31582;45.490;7.860;2023-04-24T08:10:41;15.60;99.90
45868;DHT22;31582;45.490;7.860;2023-04-24T08:13:08;15.70;99.90
45868;DHT22;31582;45.490;7.860;2023-04-24T08:15:35;15.90;99.60
45868;DHT22;31582;45.490;7.860;2023-04-24T08:18:01;15.90;99.90
45868;DHT22;31582;45.490;7.860;2023-04-24T08:20:28;16.10;99.00
45868;DHT22;31582;45.490;7.860;2023-04-24T08:22:56;16.20;99.30
45868;DHT22;31582;45.490;7.860;2023-04-24T08:25:23;16.30;98.30
45868;DHT22;31582;45.490;7.860;2023-04-24T08:27:51;16.40;98.80
45868;DHT22;31582;45.490;7.860;2023-04-24T08:30:18;16.50;96.80
45868;DHT22;31582;45.490;7.860;2023-04-24T08:32:45;16.60;95.80
45868;DHT22;31582;45.490;7.860;2023-04-24T08:35:12;16.70;96.50
45868;DHT22;31582;45.490;7.860;2023-04-24T08:37:39;16.90;96.30
45868;DHT22;31582;45.490;7.860;2023-04-24T08:40:13;17.10;96.50
45868;DHT22;31582;45.490;7.860;2023-04-24T08:42:44;17.20;92.90
45868;DHT22;31582;45.490;7.860;2023-04-24T08:45:12;17.20;92.50
45868;DHT22;31582;45.490;7.860;2023-04-24T08:47:40;17.30;91.20
45868;DHT22;31582;45.490;7.860;2023-04-24T08:50:08;17.40;88.00
45868;DHT22;31582;45.490;7.860;2023-04-24T08:52:38;17.50;88.10
45868;DHT22;31582;45.490;7.860;2023-04-24T08:55:05;17.60;84.90
45868;DHT22;31582;45.490;7.860;2023-04-24T08:57:32;17.80;84.70
45868;DHT22;31582;45.490;7.860;2023-04-24T09:00:00;17.80;86.10
45868;DHT22;31582;45.490;7.860;2023-04-24T09:02:28;18.00;86.70
45868;DHT22;31582;45.490;7.860;2023-04-24T09:04:57;18.20;79.50
45868;DHT22;31582;45.490;7.860;2023-04-24T09:07:26;18.30;80.20
45868;DHT22;31582;45.490;7.860;2023-04-24T09:09:54;18.40;84.40
45868;DHT22;31582;45.490;7.860;2023-04-24T09:12:21;18.60;84.00
45868;DHT22;31582;45.490;7.860;2023-04-24T09:14:49;18.80;82.00
45868;DHT22;31582;45.490;7.860;2023-04-24T09:17:17;18.90;81.00
45868;DHT22;31582;45.490;7.860;2023-04-24T09:19:43;19.00;81.30
45868;DHT22;31582;45.490;7.860;2023-04-24T09:22:11;19.20;81.20
45868;DHT22;31582;45.490;7.860;2023-04-24T09:24:38;19.30;74.20
45868;DHT22;31582;45.490;7.860;2023-04-24T09:27:05;19.40;75.80
45868;DHT22;31582;45.490;7.860;2023-04-24T09:29:36;19.40;77.90
45868;DHT22;31582;45.490;7.860;2023-04-24T09:32:23;19.50;74.30
45868;DHT22;31582;45.490;7.860;2023-04-24T09:35:10;19.50;72.80
45868;DHT22;31582;45.490;7.860;2023-04-24T09:37:42;19.50;71.20
45868;DHT22;31582;45.490;7.860;2023-04-24T09:40:18;19.60;72.50
45868;DHT22;31582;45.490;7.860;2023-04-24T09:42:51;19.70;72.20
45868;DHT22;31582;45.490;7.860;2023-04-24T09:45:18;19.80;73.20
45868;DHT22;31582;45.490;7.860;2023-04-24T09:47:46;20.00;74.60
45868;DHT22;31582;45.490;7.860;2023-04-24T09:50:17;20.20;73.90
45868;DHT22;31582;45.490;7.860;2023-04-24T09:52:55;20.40;71.10
45868;DHT22;31582;45.490;7.860;2023-04-24T09:55:22;20.60;68.30
45868;DHT22;31582;45.490;7.860;2023-04-24T09:57:54;20.80;66.10
45868;DHT22;31582;45.490;7.860;2023-04-24T10:00:26;21.00;66.70
45868;DHT22;31582;45.490;7.860;2023-04-24T10:03:00;21.10;66.40
45868;DHT22;31582;45.490;7.860;2023-04-24T10:05:35;21.20;62.80
45868;DHT22;31582;45.490;7.860;2023-04-24T10:08:10;21.30;60.50
45868;DHT22;31582;45.490;7.860;2023-04-24T10:10:44;21.30;58.80
45868;DHT22;31582;45.490;7.860;2023-04-24T10:13:13;21.10;60.00
45868;DHT22;31582;45.490;7.860;2023-04-24T10:15:41;21.00;61.70
45868;DHT22;31582;45.490;7.860;2023-04-24T10:18:09;20.90;60.70
45868;DHT22;31582;45.490;7.860;2023-04-24T10:20:38;20.90;64.40
45868;DHT22;31582;45.490;7.860;2023-04-24T10:23:06;20.90;62.90
45868;DHT22;31582;45.490;7.860;2023-04-24T10:25:34;21.10;62.90
45868;DHT22;31582;45.490;7.860;2023-04-24T10:28:02;21.10;60.20
45868;DHT22;31582;45.490;7.860;2023-04-24T10:30:33;21.10;61.50
45868;DHT22;31582;45.490;7.860;2023-04-24T10:33:03;21.20;61.00
45868;DHT22;31582;45.490;7.860;2023-04-24T10:35:32;21.40;62.20
45868;DHT22;31582;45.490;7.860;2023-04-24T10:38:11;21.70;62.40
45868;DHT22;31582;45.490;7.860;2023-04-24T10:40:39;22.00;60.80
45868;DHT22;31582;45.490;7.860;2023-04-24T10:43:07;22.20;59.60
45868;DHT22;31582;45.490;7.860;2023-04-24T10:45:38;22.30;57.90
45868;DHT22;31582;45.490;7.860;2023-04-24T10:48:07;22.30;56.00
45868;DHT22;31582;45.490;7.860;2023-04-24T10:53:17;22.00;54.60
45868;DHT22;31582;45.490;7.860;2023-04-24T10:55:50;21.90;56.20
45868;DHT22;31582;45.490;7.860;2023-04-24T10:58:24;21.90;57.00
45868;DHT22;31582;45.490;7.860;2023-04-24T11:01:00;22.00;57.70
45868;DHT22;31582;45.490;7.860;2023-04-24T11:03:32;22.20;53.40
45868;DHT22;31582;45.490;7.860;2023-04-24T11:06:05;22.20;53.10
45868;DHT22;31582;45.490;7.860;2023-04-24T11:08:46;22.40;54.30
45868;DHT22;31582;45.490;7.860;2023-04-24T11:11:16;22.60;55.10
45868;DHT22;31582;45.490;7.860;2023-04-24T11:16:27;22.90;52.50
45868;DHT22;31582;45.490;7.860;2023-04-24T11:21:46;23.10;52.80
45868;DHT22;31582;45.490;7.860;2023-04-24T11:24:38;23.20;51.30
45868;DHT22;31582;45.490;7.860;2023-04-24T11:35:13;23.50;49.00
45868;DHT22;31582;45.490;7.860;2023-04-24T11:37:42;23.40;49.90
45868;DHT22;31582;45.490;7.860;2023-04-24T11:40:11;23.50;50.40
45868;DHT22;31582;45.490;7.860;2023-04-24T11:42:40;23.60;50.30
45868;DHT22;31582;45.490;7.860;2023-04-24T11:45:12;23.60;49.80
45868;DHT22;31582;45.490;7.860;2023-04-24T11:47:40;23.60;48.20
45868;DHT22;31582;45.490;7.860;2023-04-24T11:50:10;23.50;48.50
45868;DHT22;31582;45.490;7.860;2023-04-24T11:52:42;23.50;49.20
45868;DHT22;31582;45.490;7.860;2023-04-24T11:57:43;23.60;50.20
45868;DHT22;31582;45.490;7.860;2023-04-24T12:02:45;23.80;48.60
45868;DHT22;31582;45.490;7.860;2023-04-24T12:05:28;23.90;49.90
45868;DHT22;31582;45.490;7.860;2023-04-24T12:07:57;24.20;49.10
45868;DHT22;31582;45.490;7.860;2023-04-24T12:10:25;24.40;47.30
45868;DHT22;31582;45.490;7.860;2023-04-24T12:12:53;24.60;47.80
45868;DHT22;31582;45.490;7.860;2023-04-24T12:15:21;24.80;46.20
45868;DHT22;31582;45.490;7.860;2023-04-24T12:17:50;24.70;44.80
45868;DHT22;31582;45.490;7.860;2023-04-24T12:20:30;24.70;45.20
45868;DHT22;31582;45.490;7.860;2023-04-24T12:22:58;24.90;45.60
45868;DHT22;31582;45.490;7.860;2023-04-24T12:25:27;25.00;42.90
45868;DHT22;31582;45.490;7.860;2023-04-24T12:30:48;25.20;43.40
45868;DHT22;31582;45.490;7.860;2023-04-24T12:33:19;25.20;42.80
45868;DHT22;31582;45.490;7.860;2023-04-24T12:35:48;25.30;43.40
45868;DHT22;31582;45.490;7.860;2023-04-24T12:38:16;25.20;43.70
45868;DHT22;31582;45.490;7.860;2023-04-24T12:40:44;25.30;44.40
45868;DHT22;31582;45.490;7.860;2023-04-24T12:43:20;25.50;45.50
45868;DHT22;31582;45.490;7.860;2023-04-24T12:45:48;25.60;43.70
45868;DHT22;31582;45.490;7.860;2023-04-24T12:48:15;25.60;43.10
45868;DHT22;31582;45.490;7.860;2023-04-24T12:50:43;25.70;42.00
45868;DHT22;31582;45.490;7.860;2023-04-24T12:53:12;25.70;39.60
45868;DHT22;31582;45.490;7.860;2023-04-24T12:55:40;25.70;41.30
45868;DHT22;31582;45.490;7.860;2023-04-24T12:58:07;25.70;41.80
45868;DHT22;31582;45.490;7.860;2023-04-24T13:00:34;25.70;40.40
45868;DHT22;31582;45.490;7.860;2023-04-24T13:03:02;25.60;36.60
45868;DHT22;31582;45.490;7.860;2023-04-24T13:05:30;25.60;38.00
45868;DHT22;31582;45.490;7.860;2023-04-24T13:07:57;25.60;39.10
45868;DHT22;31582;45.490;7.860;2023-04-24T13:10:24;25.60;40.20
45868;DHT22;31582;45.490;7.860;2023-04-24T13:12:51;25.70;40.40
45868;DHT22;31582;45.490;7.860;2023-04-24T13:15:18;25.60;40.40
45868;DHT22;31582;45.490;7.860;2023-04-24T13:17:45;25.60;39.90
45868;DHT22;31582;45.490;7.860;2023-04-24T13:20:12;25.60;37.90
45868;DHT22;31582;45.490;7.860;2023-04-24T13:22:40;25.60;36.70
45868;DHT22;31582;45.490;7.860;2023-04-24T13:25:07;25.70;37.50
45868;DHT22;31582;45.490;7.860;2023-04-24T13:27:35;25.70;36.10
45868;DHT22;31582;45.490;7.860;2023-04-24T13:30:02;25.70;36.80
45868;DHT22;31582;45.490;7.860;2023-04-24T13:32:29;25.70;37.00
45868;DHT22;31582;45.490;7.860;2023-04-24T13:34:57;25.70;34.70
45868;DHT22;31582;45.490;7.860;2023-04-24T13:37:24;25.90;35.50
45868;DHT22;31582;45.490;7.860;2023-04-24T13:39:51;25.90;34.00
45868;DHT22;31582;45.490;7.860;2023-04-24T13:42:18;26.00;34.50
45868;DHT22;31582;45.490;7.860;2023-04-24T13:44:46;26.20;33.80
45868;DHT22;31582;45.490;7.860;2023-04-24T13:47:13;26.40;31.40
45868;DHT22;31582;45.490;7.860;2023-04-24T13:49:40;26.60;31.40
45868;DHT22;31582;45.490;7.860;2023-04-24T13:52:07;26.90;29.10
45868;DHT22;31582;45.490;7.860;2023-04-24T13:54:34;27.00;27.70
45868;DHT22;31582;45.490;7.860;2023-04-24T13:57:01;27.00;26.10
45868;DHT22;31582;45.490;7.860;2023-04-24T13:59:30;27.20;26.10
45868;DHT22;31582;45.490;7.860;2023-04-24T14:01:57;27.20;26.30
45868;DHT22;31582;45.490;7.860;2023-04-24T14:04:24;27.10;21.80
45868;DHT22;31582;45.490;7.860;2023-04-24T14:06:51;27.10;20.20
45868;DHT22;31582;45.490;7.860;2023-04-24T14:09:18;26.80;20.80
45868;DHT22;31582;45.490;7.860;2023-04-24T14:11:45;26.70;20.20
45868;DHT22;31582;45.490;7.860;2023-04-24T14:14:12;26.50;19.80
45868;DHT22;31582;45.490;7.860;2023-04-24T14:16:39;26.30;19.30
45868;DHT22;31582;45.490;7.860;2023-04-24T14:19:06;26.20;20.80
45868;DHT22;31582;45.490;7.860;2023-04-24T14:21:33;26.30;20.10
45868;DHT22;31582;45.490;7.860;2023-04-24T14:24:01;26.20;19.00
45868;DHT22;31582;45.490;7.860;2023-04-24T14:26:28;26.10;19.90
45868;DHT22;31582;45.490;7.860;2023-04-24T14:28:55;26.00;19.00
45868;DHT22;31582;45.490;7.860;2023-04-24T14:31:39;25.80;19.60
45868;DHT22;31582;45.490;7.860;2023-04-24T14:34:06;25.80;20.20
45868;DHT22;31582;45.490;7.860;2023-04-24T14:36:33;25.60;19.20
45868;DHT22;31582;45.490;7.860;2023-04-24T14:39:01;25.60;19.60
45868;DHT22;31582;45.490;7.860;2023-04-24T14:41:33;25.70;20.30
45868;DHT22;31582;45.490;7.860;2023-04-24T14:44:03;25.60;19.40
45868;DHT22;31582;45.490;7.860;2023-04-24T14:46:30;25.70;20.40
45868;DHT22;31582;45.490;7.860;2023-04-24T14:48:59;25.70;19.30
45868;DHT22;31582;45.490;7.860;2023-04-24T14:51:26;25.70;19.20
45868;DHT22;31582;45.490;7.860;2023-04-24T14:53:53;25.70;19.70
45868;DHT22;31582;45.490;7.860;2023-04-24T14:56:21;25.50;18.30
45868;DHT22;31582;45.490;7.860;2023-04-24T14:58:48;25.40;19.80
45868;DHT22;31582;45.490;7.860;2023-04-24T15:01:14;25.30;18.70
45868;DHT22;31582;45.490;7.860;2023-04-24T15:03:43;25.40;20.10
45868;DHT22;31582;45.490;7.860;2023-04-24T15:06:11;25.40;19.40
45868;DHT22;31582;45.490;7.860;2023-04-24T15:08:38;25.50;19.00
45868;DHT22;31582;45.490;7.860;2023-04-24T15:11:05;25.20;17.70
45868;DHT22;31582;45.490;7.860;2023-04-24T15:13:32;25.30;19.30
45868;DHT22;31582;45.490;7.860;2023-04-24T15:15:59;25.50;20.60
45868;DHT22;31582;45.490;7.860;2023-04-24T15:18:26;25.70;20.40
45868;DHT22;31582;45.490;7.860;2023-04-24T15:20:55;25.90;19.20
45868;DHT22;31582;45.490;7.860;2023-04-24T15:23:22;25.90;19.00
45868;DHT22;31582;45.490;7.860;2023-04-24T15:25:50;25.80;18.60
45868;DHT22;31582;45.490;7.860;2023-04-24T15:28:20;25.80;18.40
45868;DHT22;31582;45.490;7.860;2023-04-24T15:30:48;25.80;19.30
45868;DHT22;31582;45.490;7.860;2023-04-24T15:33:15;25.90;19.60
45868;DHT22;31582;45.490;7.860;2023-04-24T15:35:42;25.70;18.80
45868;DHT22;31582;45.490;7.860;2023-04-24T15:38:08;25.80;19.30
45868;DHT22;31582;45.490;7.860;2023-04-24T15:40:36;25.70;18.40
45868;DHT22;31582;45.490;7.860;2023-04-24T15:43:04;25.40;18.20
45868;DHT22;31582;45.490;7.860;2023-04-24T15:45:32;25.40;18.90
45868;DHT22;31582;45.490;7.860;2023-04-24T15:47:59;25.40;18.50
45868;DHT22;31582;45.490;7.860;2023-04-24T15:50:27;25.50;19.20
45868;DHT22;31582;45.490;7.860;2023-04-24T15:52:54;25.40;18.00
45868;DHT22;31582;45.490;7.860;2023-04-24T15:55:21;25.40;18.80
45868;DHT22;31582;45.490;7.860;2023-04-24T15:57:48;25.30;18.00
45868;DHT22;31582;45.490;7.860;2023-04-24T16:00:16;25.20;17.60
45868;DHT22;31582;45.490;7.860;2023-04-24T16:02:43;25.20;17.50
45868;DHT22;31582;45.490;7.860;2023-04-24T16:05:11;25.20;18.70